Volga-4051 — V4TJ2 — position and weather

sailwx.info

Track history (hours):
 
Tides and Currents Weather Stations Pressure Air Temp Water Temp Dewpoint Dewpoint Depression Visibility Wind Speed Wind Dir Waves Ship Positions

Volga-4051

Last reported at 2018-Feb-23 21:52 UTC. Time now 2018-Feb-26 00:03 UTC.
Position N 45°27' E 036°45'.

Length 140 m; draft 3.2 m.

Type: Cargo ship. MMSI: 341140000.

Date/timePositionNaut miles runAvg speedWind from/ knotsBaromVisibWave heightAir tempDewpointWater temp
2018-Feb-23 21:52N 45°27' E 036°45'3 8.1
2018-Feb-23 21:30N 45°25' E 036°42'4 7.2
2018-Feb-23 21:00N 45°21' E 036°40'4 7.2
2018-Feb-23 20:30N 45°20' E 036°35'4 7.4
2018-Feb-23 19:59N 45°18' E 036°30'3 6.8
2018-Feb-23 19:30N 45°15' E 036°28'4 2.4
2018-Feb-23 17:43N 45°12' E 036°31'0 0.0
2018-Feb-23 17:17N 45°12' E 036°31'0 0.0
2018-Feb-23 16:59N 45°12' E 036°31'0 0.0
2018-Feb-23 15:24N 45°12' E 036°31'0 0.0
2018-Feb-23 15:00N 45°12' E 036°31'0 0.0
2018-Feb-23 14:28N 45°12' E 036°31'0 0.0
2018-Feb-23 14:00N 45°12' E 036°31'0 0.0
2018-Feb-23 13:22N 45°12' E 036°31'0 0.0
2018-Feb-23 12:53N 45°12' E 036°31'0 0.0
2018-Feb-23 12:29N 45°12' E 036°31'0 0.0
2018-Feb-23 11:59N 45°12' E 036°31'0 0.0
2018-Feb-23 11:29N 45°12' E 036°31'0 0.0
2018-Feb-23 11:01N 45°12' E 036°31'0 0.0
2018-Feb-23 10:31N 45°12' E 036°31'0 0.0
2018-Feb-23 10:00N 45°12' E 036°31'0 0.0
2018-Feb-23 09:30N 45°12' E 036°31'0 0.0
2018-Feb-23 09:00N 45°12' E 036°31'0 0.0
2018-Feb-23 07:58N 45°12' E 036°31'0 0.0
2018-Feb-23 07:14N 45°12' E 036°31'0 0.0
2018-Feb-23 06:59N 45°12' E 036°31'0 0.0
2018-Feb-23 06:30N 45°12' E 036°31'0 0.0
2018-Feb-23 06:00N 45°12' E 036°31'0 0.0
2018-Feb-23 05:27N 45°12' E 036°31'0 0.0
2018-Feb-23 05:00N 45°12' E 036°31'0 0.0
2018-Feb-23 04:29N 45°12' E 036°31'0 0.0
2018-Feb-23 00:05N 45°12' E 036°31'0 0.0
2018-Feb-22 23:36N 45°12' E 036°31'0 0.0
2018-Feb-22 23:14N 45°12' E 036°31'  
Track history (hours):
 
Tides and Currents Weather Stations Pressure Air Temp Water Temp Dewpoint Dewpoint Depression Visibility Wind Speed Wind Dir Waves Ship Positions

Volga-4051

Last reported at 2018-Feb-23 21:52 UTC. Time now 2018-Feb-26 00:03 UTC.
Position N 45°27' E 036°45'.

Length 140 m; draft 3.2 m.

Type: Cargo ship. MMSI: 341140000.

Date/timePositionNaut miles runAvg speedWind from/ knotsBaromVisibWave heightAir tempDewpointWater temp
2018-Feb-23 21:52N 45°27' E 036°45'3 8.1
2018-Feb-23 21:30N 45°25' E 036°42'4 7.2
2018-Feb-23 21:00N 45°21' E 036°40'4 7.2
2018-Feb-23 20:30N 45°20' E 036°35'4 7.4
2018-Feb-23 19:59N 45°18' E 036°30'3 6.8
2018-Feb-23 19:30N 45°15' E 036°28'4 2.4
2018-Feb-23 17:43N 45°12' E 036°31'0 0.0
2018-Feb-23 17:17N 45°12' E 036°31'0 0.0
2018-Feb-23 16:59N 45°12' E 036°31'0 0.0
2018-Feb-23 15:24N 45°12' E 036°31'0 0.0
2018-Feb-23 15:00N 45°12' E 036°31'0 0.0
2018-Feb-23 14:28N 45°12' E 036°31'0 0.0
2018-Feb-23 14:00N 45°12' E 036°31'0 0.0
2018-Feb-23 13:22N 45°12' E 036°31'0 0.0
2018-Feb-23 12:53N 45°12' E 036°31'0 0.0
2018-Feb-23 12:29N 45°12' E 036°31'0 0.0
2018-Feb-23 11:59N 45°12' E 036°31'0 0.0
2018-Feb-23 11:29N 45°12' E 036°31'0 0.0
2018-Feb-23 11:01N 45°12' E 036°31'0 0.0
2018-Feb-23 10:31N 45°12' E 036°31'0 0.0
2018-Feb-23 10:00N 45°12' E 036°31'0 0.0
2018-Feb-23 09:30N 45°12' E 036°31'0 0.0
2018-Feb-23 09:00N 45°12' E 036°31'0 0.0
2018-Feb-23 07:58N 45°12' E 036°31'0 0.0
2018-Feb-23 07:14N 45°12' E 036°31'0 0.0
2018-Feb-23 06:59N 45°12' E 036°31'0 0.0
2018-Feb-23 06:30N 45°12' E 036°31'0 0.0
2018-Feb-23 06:00N 45°12' E 036°31'0 0.0
2018-Feb-23 05:27N 45°12' E 036°31'0 0.0
2018-Feb-23 05:00N 45°12' E 036°31'0 0.0
2018-Feb-23 04:29N 45°12' E 036°31'0 0.0
2018-Feb-23 00:05N 45°12' E 036°31'0 0.0
2018-Feb-22 23:36N 45°12' E 036°31'0 0.0
2018-Feb-22 23:14N 45°12' E 036°31'  

Dump ship's entire track history